WetterOnline ( https://www.wetteronline.de )

Wetter aktuell Mulfingen

Aktuelles Wetter: Öhringen (277m)

6-stündlich | Neueste Meldungen
Ortszeit Temperatur Wetter
Do, 29.07. 2:00 15.6° C wolkenlos
Mi, 28.07. 20:00 20.2° C bewölkt
Mi, 28.07. 14:00 22.8° C leicht bewölkt
Mi, 28.07. 8:00 17.4° C bewölkt
Mi, 28.07. 2:00 18.3° C leichter Regen
Di, 27.07. 20:00 24.1° C bedeckt
Di, 27.07. 14:00 24.1° C bedeckt
Di, 27.07. 8:00 18.1° C leicht bewölkt
Ortszeit Temperatur Wetter
Do, 29.07. 7:30 15.9° C bedeckt
Do, 29.07. 7:20 15.9° C bedeckt
Do, 29.07. 7:10 15.7° C bedeckt
Do, 29.07. 7:00 15.3° C bewölkt
Do, 29.07. 6:50 15.3° C bewölkt
Do, 29.07. 6:40 15.0° C bewölkt
Do, 29.07. 6:30 14.4° C bewölkt
Do, 29.07. 6:00 14.4° C bewölkt
Do, 29.07. 5:30 14.5° C wolkig
Do, 29.07. 5:00 14.4° C wolkenlos
Do, 29.07. 4:30 14.4° C wolkenlos
Ortszeit Relative Feuchte Sichtweite
Do, 29.07. 2:00 91% 50 km
Mi, 28.07. 20:00 72% 60 km
Mi, 28.07. 14:00 64% 55 km
Mi, 28.07. 8:00 87% 30 km
Mi, 28.07. 2:00 90% 12 km
Di, 27.07. 20:00 58% 55 km
Di, 27.07. 14:00 54% 65 km
Di, 27.07. 8:00 80% 50 km
Ortszeit Relative Feuchte Sichtweite
Do, 29.07. 7:30 82% 55 km
Do, 29.07. 7:20 82% -
Do, 29.07. 7:10 85% -
Do, 29.07. 7:00 85% 55 km
Do, 29.07. 6:50 85% -
Do, 29.07. 6:40 86% -
Do, 29.07. 6:30 87% 45 km
Do, 29.07. 6:00 87% 40 km
Do, 29.07. 5:30 87% 50 km
Do, 29.07. 5:00 89% 50 km
Do, 29.07. 4:30 90% 50 km
Ortszeit Niederschlagsmenge Niederschlagsart
Do, 29.07. 2:00 0.2 l/m2 in 6 Std. Regen
Mi, 28.07. 20:00 1 l/m2 in 12 Std. Regen
Mi, 28.07. 14:00 0.0 l/m2 in 6 Std. -
Mi, 28.07. 8:00 0.8 l/m2 in 12 Std. Regen
Mi, 28.07. 2:00 0.2 l/m2 in 6 Std. Regen
Di, 27.07. 20:00 0.0 l/m2 in 12 Std. -
Di, 27.07. 14:00 0.0 l/m2 in 6 Std. -
Di, 27.07. 8:00 0.0 l/m2 in 12 Std. -
Ortszeit Niederschlagsmenge Niederschlagsart
Do, 29.07. 7:30 0.0 l/m2 in 1 Std. -
Do, 29.07. 7:20 keine Meldung -
Do, 29.07. 7:10 keine Meldung -
Do, 29.07. 7:00 0.0 l/m2 in 1 Std. -
Do, 29.07. 6:50 keine Meldung -
Do, 29.07. 6:40 keine Meldung -
Do, 29.07. 6:30 0.0 l/m2 in 1 Std. -
Do, 29.07. 6:00 0.0 l/m2 in 1 Std. -
Do, 29.07. 5:30 0.0 l/m2 in 1 Std. -
Do, 29.07. 5:00 0.0 l/m2 in 1 Std. -
Do, 29.07. 4:30 0.0 l/m2 in 1 Std. -
Ortszeit Stärke Spitze Richtung
km/h Bft. km/h Grad Sektor
Do, 29.07. 2:00 4 1 40 260° W
Mi, 28.07. 20:00 11 2 43 270° W
Mi, 28.07. 14:00 9 2 20 210° SW
Mi, 28.07. 8:00 6 1 19 220° SW
Mi, 28.07. 2:00 9 2 22 280° W
Di, 27.07. 20:00 4 1 14 90° O
Di, 27.07. 14:00 6 1 19 300° NW
Di, 27.07. 8:00 4 1 7 120° SO
Ortszeit Stärke Spitze Richtung
km/h Bft. km/h Grad Sektor
Do, 29.07. 7:30 4 1 7 290° W
Do, 29.07. 7:20 4 1 - 290° W
Do, 29.07. 7:10 4 1 - 270° W
Do, 29.07. 7:00 4 1 7 210° SW
Do, 29.07. 6:50 4 1 - 210° SW
Do, 29.07. 6:40 4 1 - 220° SW
Do, 29.07. 6:30 6 1 9 160° S
Do, 29.07. 6:00 6 1 9 140° SO
Do, 29.07. 5:30 7 2 7 120° SO
Do, 29.07. 5:00 6 1 7 110° O
Do, 29.07. 4:30 6 1 7 120° SO
Ortszeit Untergrenze Bedeckung Gattung
total tief tief mittel hoch
Do, 29.07. 2:00 - 0/8 0/8 - - -
Mi, 28.07. 20:00 990 m 7/8 7/8 - - -
Mi, 28.07. 14:00 810 m 5/8 1/8 - - -
Mi, 28.07. 8:00 960 m 7/8 7/8 - - -
Mi, 28.07. 2:00 960 m 8/8 3/8 - - -
Di, 27.07. 20:00 4800 m 8/8 8/8 - - -
Di, 27.07. 14:00 5400 m 8/8 8/8 - - -
Di, 27.07. 8:00 9000 m 5/8 0/8 - - -
Ortszeit Bedeckungsgrad in Achtel und Wolkenuntergrenze
Do, 29.07. 7:30 5(1200m) 5(1500m) 8(2100m)
Do, 29.07. 7:20 5(1200m) 5(1500m) 8(2100m)
Do, 29.07. 7:10 4(1170m) 4(1500m) 8(2100m)
Do, 29.07. 7:00 2(1230m) 7(2100m) 8(2100m)
Do, 29.07. 6:50 2(1230m) 7(2100m)
Do, 29.07. 6:40 1(1260m) 7(2100m)
Do, 29.07. 6:30 7(2100m)
Do, 29.07. 6:00 7(2100m)
Do, 29.07. 5:30 5(2100m)
Do, 29.07. 5:00 keine Wolken
Do, 29.07. 4:30 keine Wolken
Ortszeit Luftdruck NN (hPa) Tendenz (hPa in 3 Std.)
Do, 29.07. 2:00 1015 - 0,3
Mi, 28.07. 20:00 1014 + 0,7
Mi, 28.07. 14:00 1014 - 0,3
Mi, 28.07. 8:00 1014 + 0,3
Mi, 28.07. 2:00 1014 + 1,6
Di, 27.07. 20:00 1011 - 1,2
Di, 27.07. 14:00 1014 - 0,5
Di, 27.07. 8:00 1015 - 0,3
Ortszeit Luftdruck NN (hPa) Tendenz (hPa in 3 Std.)
Do, 29.07. 7:30 1015 + 0,2
Do, 29.07. 7:20 1015 keine Meldung
Do, 29.07. 7:10 1015 keine Meldung
Do, 29.07. 7:00 1015 + 0,2
Do, 29.07. 6:50 1015 keine Meldung
Do, 29.07. 6:40 1015 keine Meldung
Do, 29.07. 6:30 1015 + 0,2
Do, 29.07. 6:00 1015 - 0,2
Do, 29.07. 5:30 1015 - 0,1
Do, 29.07. 5:00 1015 - 0,3
Do, 29.07. 4:30 1015 - 0,3
Ortszeit Schneehöhe (cm)
Do, 29.07. 2:00 -
Mi, 28.07. 20:00 -
Mi, 28.07. 14:00 -
Mi, 28.07. 8:00 -
Mi, 28.07. 2:00 -
Di, 27.07. 20:00 -
Di, 27.07. 14:00 -
Di, 27.07. 8:00 -
Ortszeit Schneehöhe (cm)
Do, 29.07. 7:30 -
Do, 29.07. 7:20 -
Do, 29.07. 7:10 -
Do, 29.07. 7:00 -
Do, 29.07. 6:50 -
Do, 29.07. 6:40 -
Do, 29.07. 6:30 -
Do, 29.07. 6:00 -
Do, 29.07. 5:30 -
Do, 29.07. 5:00 -
Do, 29.07. 4:30 -
Link zu dieser Seite / Seite empfehlen

Das Wetter in ...